Time;durP1;ratioP1;P1;durP2;ratioP2;P2;SDS_P1;SDS_P2;PMS_P1;PMS_P2;Temp;Humidity;BMP_temperature;BMP_pressure;BME280_temperature;BME280_humidity;BME280_pressure;Samples;Min_cycle;Max_cycle;Signal;HPM_P1;HPM_P2
2022/10/19 00:01:21;;;;;;;19.73;8.68;;;;;;;16.21;94.28;100966.56;5049563;28;20368;-84
2022/10/19 00:03:51;;;;;;;21.23;9.05;;;;;;;16.36;95.07;100964.25;4983118;28;20049;-85
2022/10/19 00:06:26;;;;;;;18.13;8.32;;;;;;;16.32;94.46;100963.69;5012151;28;20041;-84
2022/10/19 00:08:58;;;;;;;31.10;9.32;;;;;;;16.35;95.16;100962.56;4993077;28;20073;-85
2022/10/19 00:11:25;;;;;;;39.80;9.60;;;;;;;16.35;94.77;100971.44;5051858;28;20071;-85
2022/10/19 00:13:54;;;;;;;21.10;9.50;;;;;;;16.36;94.90;100966.91;5047522;28;20064;-85
2022/10/19 00:16:22;;;;;;;25.77;8.98;;;;;;;16.32;94.81;100966.38;5045890;28;20061;-85
2022/10/19 00:18:49;;;;;;;19.05;8.95;;;;;;;16.37;94.76;100964.09;5033627;28;20064;-85
2022/10/19 00:21:17;;;;;;;20.65;8.23;;;;;;;16.30;94.85;100960.31;5014908;28;20049;-85
2022/10/19 00:23:45;;;;;;;35.63;9.20;;;;;;;16.27;94.99;100968.66;5027780;28;20073;-86
2022/10/19 00:26:12;;;;;;;18.20;7.90;;;;;;;16.30;94.70;100970.19;5016638;28;20045;-85
2022/10/19 00:28:39;;;;;;;13.10;7.82;;;;;;;16.26;95.15;100962.44;5032461;28;20495;-84
2022/10/19 00:31:12;;;;;;;20.80;8.35;;;;;;;16.18;94.72;100962.34;5018442;28;20040;-85
2022/10/19 00:33:39;;;;;;;17.58;8.00;;;;;;;16.20;95.66;100965.69;4996902;28;20041;-85
2022/10/19 00:36:19;;;;;;;17.67;8.95;;;;;;;16.13;94.37;100963.72;5017532;28;20041;-86
2022/10/19 00:38:46;;;;;;;25.40;8.85;;;;;;;16.24;95.26;100959.06;5004656;28;20140;-85
2022/10/19 00:41:14;;;;;;;18.00;8.10;;;;;;;16.21;95.12;100956.69;5025413;28;20130;-86
2022/10/19 00:44:06;;;;;;;15.57;8.38;;;;;;;16.05;94.80;100968.00;5029059;28;20483;-85
2022/10/19 00:46:35;;;;;;;29.23;9.13;;;;;;;16.18;95.20;100959.66;4985507;28;20515;-85
2022/10/19 00:49:06;;;;;;;21.95;8.68;;;;;;;16.15;94.65;100967.97;5041828;28;20619;-85
2022/10/19 00:51:39;;;;;;;32.20;8.98;;;;;;;16.20;94.41;100964.84;5026126;28;20136;-85
2022/10/19 00:54:07;;;;;;;22.60;8.80;;;;;;;16.23;94.60;100964.56;5029504;28;20052;-85
2022/10/19 00:56:34;;;;;;;29.10;8.40;;;;;;;16.17;94.31;100955.28;5026865;28;20120;-85
2022/10/19 00:59:03;;;;;;;18.08;8.25;;;;;;;16.15;93.83;100959.09;5015282;28;20079;-84
2022/10/19 01:01:30;;;;;;;19.50;8.52;;;;;;;16.20;93.75;100959.50;5012344;28;20115;-84
2022/10/19 01:03:57;;;;;;;20.27;8.65;;;;;;;16.18;93.51;100961.47;5047032;28;20045;-84
2022/10/19 01:06:24;;;;;;;19.83;10.43;;;;;;;16.16;93.59;100950.06;5028612;28;20539;-85
2022/10/19 01:08:51;;;;;;;24.98;9.85;;;;;;;16.11;93.59;100955.84;5044993;28;20056;-86
2022/10/19 01:11:41;;;;;;;15.45;8.98;;;;;;;16.08;92.80;100953.47;5012685;28;20052;-85
2022/10/19 01:14:23;;;;;;;17.60;8.27;;;;;;;16.06;93.56;100945.56;4952272;28;20101;-85
2022/10/19 01:16:56;;;;;;;16.73;8.88;;;;;;;16.00;93.81;100940.81;5035810;28;20064;-84
2022/10/19 01:19:50;;;;;;;22.20;8.55;;;;;;;16.01;93.89;100938.97;5032735;28;20044;-85
2022/10/19 01:22:41;;;;;;;21.80;8.80;;;;;;;15.98;93.55;100933.91;4986035;28;20045;-84
2022/10/19 01:25:29;;;;;;;17.17;8.20;;;;;;;15.95;93.86;100934.16;4988430;28;20102;-84
2022/10/19 01:28:03;;;;;;;22.23;9.00;;;;;;;16.05;93.74;100934.97;4994495;28;20048;-85
2022/10/19 01:30:42;;;;;;;17.00;8.63;;;;;;;15.92;93.13;100939.81;5035450;28;20068;-85
2022/10/19 01:33:41;;;;;;;27.55;9.38;;;;;;;15.89;93.13;100940.09;5015201;28;20040;-85
2022/10/19 01:36:23;;;;;;;71.28;10.20;;;;;;;15.94;92.93;100945.88;4945715;28;20041;-85
2022/10/19 01:38:54;;;;;;;33.90;8.70;;;;;;;16.00;93.18;100938.13;5025350;28;20488;-85
2022/10/19 01:41:40;;;;;;;60.78;9.40;;;;;;;15.88;92.45;100931.22;5020651;28;20044;-85
2022/10/19 01:44:15;;;;;;;33.85;7.47;;;;;;;15.93;92.71;100941.50;4999604;28;20040;-85
2022/10/19 01:47:02;;;;;;;18.52;7.95;;;;;;;15.86;92.17;100937.72;5034292;28;20408;-85
2022/10/19 01:49:38;;;;;;;18.02;6.85;;;;;;;15.96;91.87;100931.34;4995400;28;20060;-84
2022/10/19 01:52:08;;;;;;;16.92;7.85;;;;;;;15.97;91.98;100925.00;5034284;28;20126;-85
2022/10/19 01:54:43;;;;;;;15.50;7.10;;;;;;;15.94;91.14;100924.44;5007320;28;20386;-85
2022/10/19 01:57:12;;;;;;;16.58;8.07;;;;;;;16.01;91.88;100921.03;5009584;28;20455;-85
2022/10/19 01:59:40;;;;;;;18.27;7.63;;;;;;;16.05;92.10;100926.94;5028186;28;20423;-85
2022/10/19 02:02:08;;;;;;;15.23;8.15;;;;;;;16.01;91.47;100921.03;5022894;28;20049;-85
2022/10/19 02:04:36;;;;;;;13.85;6.80;;;;;;;16.00;91.74;100919.38;5025835;28;20090;-85
2022/10/19 02:07:03;;;;;;;21.05;7.95;;;;;;;16.01;91.90;100910.31;4995227;28;20049;-85
2022/10/19 02:09:30;;;;;;;14.60;7.25;;;;;;;16.00;92.03;100905.97;5028270;28;20129;-85
2022/10/19 02:12:00;;;;;;;15.13;7.07;;;;;;;16.01;90.94;100909.50;5029914;28;20098;-85
2022/10/19 02:14:31;;;;;;;18.45;7.32;;;;;;;15.93;91.24;100912.06;5045119;28;20583;-85
2022/10/19 02:17:04;;;;;;;16.95;7.63;;;;;;;15.98;91.10;100907.09;5007869;28;20041;-86
2022/10/19 02:19:31;;;;;;;17.33;7.65;;;;;;;15.99;91.30;100904.25;4995303;28;20452;-85
2022/10/19 02:21:58;;;;;;;17.20;7.90;;;;;;;15.99;91.74;100911.47;5022260;28;20045;-85
2022/10/19 02:24:24;;;;;;;16.50;8.25;;;;;;;15.96;91.79;100903.72;5020147;28;20044;-84
2022/10/19 02:26:52;;;;;;;19.02;8.20;;;;;;;15.94;92.24;100895.81;5027234;28;20147;-85
2022/10/19 02:29:18;;;;;;;24.42;8.20;;;;;;;15.94;92.46;100887.78;5009481;28;20044;-85
2022/10/19 02:31:45;;;;;;;21.95;8.68;;;;;;;15.93;92.52;100888.78;4994471;28;20037;-85
2022/10/19 02:34:12;;;;;;;22.15;9.43;;;;;;;15.96;92.39;100883.13;5019292;28;20070;-86
2022/10/19 02:36:39;;;;;;;23.58;9.27;;;;;;;15.97;92.72;100887.47;5016545;28;20041;-84
2022/10/19 02:39:06;;;;;;;28.40;9.32;;;;;;;15.96;92.88;100884.97;5023358;28;20122;-85
2022/10/19 02:41:37;;;;;;;22.55;9.68;;;;;;;15.93;92.72;100879.91;5048132;28;20049;-84
2022/10/19 02:44:14;;;;;;;20.15;8.48;;;;;;;15.90;92.68;100872.13;5067894;28;20458;-85
2022/10/19 02:46:47;;;;;;;23.08;9.13;;;;;;;15.84;92.88;100879.75;5017666;28;20041;-84
2022/10/19 02:49:14;;;;;;;23.20;9.05;;;;;;;15.92;93.12;100873.69;4995262;28;20052;-86
2022/10/19 02:51:59;;;;;;;27.65;10.45;;;;;;;15.79;93.31;100867.78;5010757;28;20118;-84
2022/10/19 02:54:26;;;;;;;21.85;8.57;;;;;;;15.96;93.19;100876.94;5034719;28;20522;-85
2022/10/19 02:56:53;;;;;;;17.92;8.48;;;;;;;15.96;93.03;100875.09;5023184;28;20049;-85
2022/10/19 02:59:20;;;;;;;25.88;9.27;;;;;;;15.95;93.17;100875.22;5032540;28;20530;-85
2022/10/19 03:01:47;;;;;;;25.88;9.45;;;;;;;15.97;93.12;100873.25;5032855;28;20514;-85
2022/10/19 03:04:14;;;;;;;20.90;8.65;;;;;;;15.96;93.40;100875.09;5038962;28;20445;-85
2022/10/19 03:06:40;;;;;;;22.25;9.30;;;;;;;15.98;93.38;100877.63;5026829;28;20049;-85
2022/10/19 03:09:07;;;;;;;23.90;9.32;;;;;;;15.97;93.49;100881.28;5029295;28;20403;-85
2022/10/19 03:11:34;;;;;;;22.05;8.57;;;;;;;15.97;92.98;100879.44;5014637;28;20507;-84
2022/10/19 03:14:01;;;;;;;21.90;9.52;;;;;;;16.01;92.51;100869.31;5008650;28;20072;-85
2022/10/19 03:16:28;;;;;;;23.42;9.75;;;;;;;15.92;93.28;100876.34;5014160;28;20036;-84
2022/10/19 03:18:54;;;;;;;22.02;8.57;;;;;;;16.00;91.95;100868.47;5027456;28;20071;-85
2022/10/19 03:21:21;;;;;;;18.98;8.10;;;;;;;15.83;93.20;100869.22;5029168;28;20044;-84
2022/10/19 03:23:48;;;;;;;22.45;8.27;;;;;;;15.94;92.36;100873.53;5045523;28;20053;-86
2022/10/19 03:26:16;;;;;;;22.10;9.20;;;;;;;15.82;93.05;100876.41;5031198;28;20589;-85
2022/10/19 03:28:43;;;;;;;13.98;7.28;;;;;;;15.81;92.59;100882.72;5031831;28;20536;-85
2022/10/19 03:31:11;;;;;;;17.40;8.25;;;;;;;15.80;92.45;100877.53;5041757;28;20142;-85
2022/10/19 03:33:37;;;;;;;17.38;7.63;;;;;;;15.93;91.88;100880.75;5029288;28;20073;-85
2022/10/19 03:36:26;;;;;;;24.27;9.00;;;;;;;15.62;92.47;100882.72;5026755;28;20140;-85
2022/10/19 03:38:57;;;;;;;16.63;7.40;;;;;;;15.63;92.99;100879.91;4997551;28;20055;-85
2022/10/19 03:41:29;;;;;;;15.02;7.10;;;;;;;15.60;92.96;100888.22;5019687;28;20103;-85
2022/10/19 03:43:56;;;;;;;15.02;6.75;;;;;;;15.58;93.35;100884.84;5010413;28;20500;-85
2022/10/19 03:46:23;;;;;;;17.85;6.55;;;;;;;15.63;92.71;100887.09;5036085;28;20052;-85
2022/10/19 03:48:50;;;;;;;18.95;6.28;;;;;;;15.65;92.82;100890.50;5039963;28;20469;-85
2022/10/19 03:51:19;;;;;;;15.98;6.70;;;;;;;15.67;92.32;100884.97;5034300;28;20490;-84
2022/10/19 03:53:47;;;;;;;18.35;6.18;;;;;;;15.67;92.55;100890.34;5036072;28;20045;-85
2022/10/19 03:56:16;;;;;;;14.85;6.00;;;;;;;15.63;92.09;100887.94;5033928;28;20498;-85
2022/10/19 03:58:44;;;;;;;13.38;6.65;;;;;;;15.60;92.17;100890.06;5032434;28;20068;-85
2022/10/19 04:01:14;;;;;;;15.27;7.10;;;;;;;15.62;91.85;100888.94;5024954;28;20099;-85
2022/10/19 04:03:41;;;;;;;12.55;6.15;;;;;;;15.58;92.10;100894.72;5049802;28;20049;-85
2022/10/19 04:06:12;;;;;;;12.20;6.00;;;;;;;15.57;92.03;100896.56;5039313;28;20049;-85
2022/10/19 04:08:44;;;;;;;13.25;5.50;;;;;;;15.59;91.58;100891.88;4998633;28;20060;-86
2022/10/19 04:11:13;;;;;;;12.32;5.80;;;;;;;15.42;92.13;100897.97;5027743;28;20040;-86
2022/10/19 04:13:40;;;;;;;12.25;6.13;;;;;;;15.45;92.37;100895.00;5009937;28;20041;-86
2022/10/19 04:16:07;;;;;;;10.70;5.65;;;;;;;15.46;91.83;100887.81;5010342;28;20049;-86
2022/10/19 04:18:33;;;;;;;11.95;6.22;;;;;;;15.38;91.58;100886.69;5010274;28;20049;-85
2022/10/19 04:21:03;;;;;;;12.10;6.78;;;;;;;15.40;91.92;100889.22;5025478;28;20072;-85
2022/10/19 04:23:32;;;;;;;10.23;5.90;;;;;;;15.48;91.42;100886.69;5030793;28;20051;-85
2022/10/19 04:26:05;;;;;;;11.32;6.07;;;;;;;15.26;91.42;100893.16;5024133;28;20045;-85
2022/10/19 04:28:33;;;;;;;13.15;5.53;;;;;;;15.43;91.43;100882.75;5041155;28;20392;-86
2022/10/19 04:31:04;;;;;;;11.15;5.20;;;;;;;15.33;91.26;100886.28;5036693;28;20036;-85
2022/10/19 04:33:31;;;;;;;7.45;4.45;;;;;;;15.40;91.28;100884.72;5028535;28;20049;-85
2022/10/19 04:36:03;;;;;;;10.38;5.35;;;;;;;15.33;91.22;100885.44;5017424;28;20529;-85
2022/10/19 04:38:31;;;;;;;10.73;5.40;;;;;;;15.37;91.42;100886.84;5028626;28;20091;-86
2022/10/19 04:41:19;;;;;;;11.15;5.30;;;;;;;15.18;90.45;100887.66;5025066;28;20055;-86
2022/10/19 04:43:46;;;;;;;10.82;5.70;;;;;;;15.36;90.71;100887.81;5033657;28;20131;-85
2022/10/19 04:46:15;;;;;;;9.82;5.90;;;;;;;15.27;90.63;100888.69;5026224;28;20048;-85
2022/10/19 04:48:42;;;;;;;10.00;5.00;;;;;;;15.32;91.00;100897.13;5014710;28;20393;-85
2022/10/19 04:51:10;;;;;;;11.60;5.80;;;;;;;15.32;91.01;100891.78;5029054;28;20053;-86
2022/10/19 04:53:38;;;;;;;10.95;5.72;;;;;;;15.33;90.59;100890.78;5046581;28;20037;-88
2022/10/19 04:56:07;;;;;;;12.60;5.53;;;;;;;15.28;90.81;100891.19;5031894;28;20523;-87
2022/10/19 04:58:34;;;;;;;10.80;5.35;;;;;;;15.26;90.61;100892.31;5042164;28;20052;-88
2022/10/19 05:01:12;;;;;;;11.60;5.95;;;;;;;15.17;90.41;100894.84;5012602;28;20073;-86
2022/10/19 05:03:39;;;;;;;14.10;5.63;;;;;;;15.31;90.61;100888.22;5028954;28;20048;-88
2022/10/19 05:06:06;;;;;;;13.70;5.68;;;;;;;15.31;90.71;100895.41;5026295;28;20408;-87
2022/10/19 05:08:34;;;;;;;17.27;6.93;;;;;;;15.35;90.45;100894.16;5017588;28;20036;-87
2022/10/19 05:11:06;;;;;;;14.20;7.15;;;;;;;15.33;90.65;100894.28;5029485;28;20049;-86
2022/10/19 05:13:33;;;;;;;15.18;6.70;;;;;;;15.30;90.89;100888.41;5005829;28;20045;-86
2022/10/19 05:16:02;;;;;;;11.23;5.80;;;;;;;15.32;90.65;100889.09;5029687;28;20059;-85
2022/10/19 05:18:29;;;;;;;13.68;5.95;;;;;;;15.35;90.48;100878.09;5025924;28;20061;-83
2022/10/19 05:21:05;;;;;;;17.10;6.88;;;;;;;15.21;90.28;100879.34;5027028;28;20079;-83
2022/10/19 05:23:33;;;;;;;12.93;6.53;;;;;;;15.29;90.63;100875.97;5036828;28;20091;-83
2022/10/19 05:26:03;;;;;;;13.40;6.53;;;;;;;15.25;90.46;100878.09;5036169;28;20447;-82
2022/10/19 05:28:31;;;;;;;15.07;6.82;;;;;;;15.30;90.20;100865.16;5048636;28;20460;-82
2022/10/19 05:31:12;;;;;;;16.67;7.53;;;;;;;15.11;90.23;100866.00;5038646;28;20482;-82
2022/10/19 05:33:40;;;;;;;14.57;6.75;;;;;;;15.19;90.61;100865.31;5006018;28;20037;-83
2022/10/19 05:36:14;;;;;;;15.50;7.32;;;;;;;15.16;90.73;100863.75;5043997;28;20458;-83
2022/10/19 05:38:41;;;;;;;17.00;7.10;;;;;;;15.19;90.96;100858.13;5035024;28;20041;-82
2022/10/19 05:41:09;;;;;;;14.57;6.93;;;;;;;15.26;90.78;100865.56;5040908;28;20126;-83
2022/10/19 05:43:35;;;;;;;16.45;6.95;;;;;;;15.20;90.74;100858.94;5055536;28;20045;-82
2022/10/19 05:46:07;;;;;;;20.45;7.63;;;;;;;15.25;90.50;100855.84;5013586;28;20049;-83
2022/10/19 05:48:34;;;;;;;13.32;6.60;;;;;;;15.18;91.04;100860.91;5043847;28;20139;-84
2022/10/19 05:51:04;;;;;;;16.15;6.80;;;;;;;15.22;90.59;100851.63;5025888;28;20191;-84
2022/10/19 05:53:31;;;;;;;15.73;7.85;;;;;;;15.17;91.14;100860.06;5048993;28;20053;-83
2022/10/19 05:55:58;;;;;;;12.82;6.97;;;;;;;15.24;90.69;100864.84;5039054;28;20051;-83
2022/10/19 05:58:25;;;;;;;17.70;7.05;;;;;;;15.20;91.23;100862.47;5040598;28;20079;-83
2022/10/19 06:00:53;;;;;;;16.50;6.95;;;;;;;15.26;90.80;100857.53;5044041;28;20048;-82
2022/10/19 06:03:20;;;;;;;16.15;6.88;;;;;;;15.24;91.13;100860.38;5029704;28;20083;-82
2022/10/19 06:05:51;;;;;;;17.30;7.63;;;;;;;15.22;90.90;100865.00;5038921;28;20397;-83
2022/10/19 06:08:19;;;;;;;14.27;6.53;;;;;;;15.20;91.12;100858.94;5019376;28;20059;-82
2022/10/19 06:10:47;;;;;;;14.40;7.32;;;;;;;15.17;91.23;100860.06;5018052;28;20041;-82
2022/10/19 06:13:15;;;;;;;17.92;7.93;;;;;;;15.16;90.94;100857.53;5040992;28;20098;-83
2022/10/19 06:15:41;;;;;;;17.88;7.43;;;;;;;15.08;92.01;100865.41;5041614;28;20048;-84
2022/10/19 06:18:10;;;;;;;15.65;6.82;;;;;;;15.14;91.77;100870.22;5052745;28;20553;-84
2022/10/19 06:20:38;;;;;;;15.32;7.40;;;;;;;15.16;91.75;100866.44;5022161;28;20091;-83
2022/10/19 06:23:05;;;;;;;15.07;6.60;;;;;;;15.22;91.53;100866.84;5039932;28;20045;-84
2022/10/19 06:25:32;;;;;;;14.23;6.78;;;;;;;15.24;91.94;100865.72;5043690;28;20570;-83
2022/10/19 06:28:00;;;;;;;17.20;8.07;;;;;;;15.26;91.92;100860.22;5036777;28;20167;-84
2022/10/19 06:30:27;;;;;;;14.77;7.38;;;;;;;15.27;91.71;100875.31;5023466;28;20045;-83
2022/10/19 06:32:54;;;;;;;16.75;7.32;;;;;;;15.29;91.82;100873.31;5050335;28;20045;-83
2022/10/19 06:35:21;;;;;;;16.98;7.18;;;;;;;15.34;91.23;100882.63;5025727;28;20507;-83
2022/10/19 06:37:48;;;;;;;17.73;6.72;;;;;;;15.31;91.51;100882.03;5040786;28;20033;-84
2022/10/19 06:40:15;;;;;;;18.00;7.38;;;;;;;15.27;91.70;100892.19;5058806;28;20068;-84
2022/10/19 06:42:42;;;;;;;17.35;6.85;;;;;;;15.27;92.06;100889.53;5033499;28;20131;-83
2022/10/19 06:45:09;;;;;;;19.10;7.60;;;;;;;15.26;92.14;100887.81;5037572;28;20611;-83
2022/10/19 06:47:36;;;;;;;18.17;6.80;;;;;;;15.28;92.16;100885.84;5040041;28;20074;-83
2022/10/19 06:50:05;;;;;;;15.68;7.18;;;;;;;15.27;92.42;100884.16;5026939;28;20063;-83
2022/10/19 06:52:32;;;;;;;17.55;7.18;;;;;;;15.31;92.06;100884.72;5038114;28;20488;-83
2022/10/19 06:55:00;;;;;;;16.08;7.07;;;;;;;15.35;91.93;100891.50;5025386;28;20041;-84
2022/10/19 06:57:27;;;;;;;17.50;7.30;;;;;;;15.27;92.24;100886.84;5026221;28;20052;-82
2022/10/19 06:59:54;;;;;;;14.75;6.65;;;;;;;15.30;92.18;100889.22;5044896;28;20484;-84
2022/10/19 07:02:21;;;;;;;15.73;7.22;;;;;;;15.33;92.16;100880.91;5053232;28;20044;-84
2022/10/19 07:04:47;;;;;;;17.23;7.10;;;;;;;15.36;91.68;100885.97;5042268;28;20052;-82
2022/10/19 07:07:14;;;;;;;17.55;7.38;;;;;;;15.35;91.99;100883.47;5042404;28;20440;-82
2022/10/19 07:09:41;;;;;;;17.63;7.53;;;;;;;15.34;92.16;100884.44;5056361;28;20055;-82
2022/10/19 07:12:09;;;;;;;17.98;7.22;;;;;;;15.29;92.36;100887.56;5037850;28;20045;-82
2022/10/19 07:14:38;;;;;;;16.45;7.63;;;;;;;15.26;92.80;100886.97;5028593;28;20047;-83
2022/10/19 07:17:06;;;;;;;16.67;7.43;;;;;;;15.22;92.56;100897.13;5041235;28;20123;-82
2022/10/19 07:19:32;;;;;;;14.70;6.90;;;;;;;15.26;92.83;100895.00;5040260;28;20443;-83
2022/10/19 07:21:59;;;;;;;19.70;7.38;;;;;;;15.34;92.47;100897.81;5037544;28;20037;-82
2022/10/19 07:24:26;;;;;;;20.60;7.43;;;;;;;15.29;92.99;100892.91;5052236;28;20049;-82
2022/10/19 07:26:53;;;;;;;18.50;7.30;;;;;;;15.30;92.85;100897.25;5026255;28;20040;-82
2022/10/19 07:29:19;;;;;;;22.27;7.38;;;;;;;15.31;92.84;100895.41;5020528;28;20051;-82
2022/10/19 07:31:46;;;;;;;16.02;7.15;;;;;;;15.36;92.78;100895.84;5022017;28;20041;-82
2022/10/19 07:34:13;;;;;;;14.30;7.18;;;;;;;15.41;92.45;100893.59;5023758;28;20072;-81
2022/10/19 07:36:44;;;;;;;16.52;7.25;;;;;;;15.41;92.51;100896.25;5033972;28;20049;-81
2022/10/19 07:39:12;;;;;;;16.50;7.65;;;;;;;15.41;92.64;100893.59;5036029;28;20053;-82
2022/10/19 07:41:39;;;;;;;16.08;7.45;;;;;;;15.46;92.27;100899.38;5023007;28;20136;-83
2022/10/19 07:44:06;;;;;;;19.20;7.88;;;;;;;15.39;92.74;100891.06;5029114;28;20064;-82
2022/10/19 07:46:37;;;;;;;16.80;7.80;;;;;;;15.34;93.25;100900.50;5035737;28;20055;-82
2022/10/19 07:49:07;;;;;;;14.75;7.55;;;;;;;15.40;92.94;100905.28;5011624;28;20102;-82
2022/10/19 07:51:34;;;;;;;16.27;8.35;;;;;;;15.41;92.52;100909.66;5033131;28;20041;-81
2022/10/19 07:54:01;;;;;;;14.00;7.32;;;;;;;15.46;92.18;100912.75;5041662;28;20139;-82
2022/10/19 07:56:28;;;;;;;12.38;7.05;;;;;;;15.50;92.14;100902.63;5038709;28;20041;-83
2022/10/19 07:58:57;;;;;;;18.10;7.68;;;;;;;15.53;91.74;100908.53;5034234;28;20116;-83
2022/10/19 08:01:26;;;;;;;15.20;7.15;;;;;;;15.56;91.77;100907.41;5038713;28;20053;-81
2022/10/19 08:03:53;;;;;;;16.17;7.10;;;;;;;15.60;91.68;100904.31;5034059;28;20075;-82
2022/10/19 08:06:40;;;;;;;13.65;6.85;;;;;;;15.66;91.71;100902.03;5060542;28;20517;-82
2022/10/19 08:09:07;;;;;;;15.52;8.40;;;;;;;15.66;91.73;100907.41;5033292;28;20072;-82
2022/10/19 08:11:34;;;;;;;14.82;7.72;;;;;;;15.51;91.97;100907.81;5031197;28;20134;-83
2022/10/19 08:14:02;;;;;;;18.20;8.15;;;;;;;15.48;91.60;100904.59;5034063;28;20060;-82
2022/10/19 08:16:40;;;;;;;14.13;8.18;;;;;;;15.51;91.72;100913.16;5028586;28;20045;-83
2022/10/19 08:19:12;;;;;;;14.75;7.93;;;;;;;15.47;91.55;100913.59;5045426;28;20047;-82
2022/10/19 08:21:42;;;;;;;14.13;7.32;;;;;;;15.50;90.81;100911.50;5040591;28;20053;-83
2022/10/19 08:24:10;;;;;;;12.82;7.40;;;;;;;15.52;90.10;100908.66;5050252;28;20155;-82
2022/10/19 08:26:37;;;;;;;13.32;7.88;;;;;;;15.55;90.33;100905.72;5027386;28;20053;-82
2022/10/19 08:29:09;;;;;;;16.00;7.63;;;;;;;15.48;90.32;100908.09;5047178;28;20048;-82
2022/10/19 08:31:36;;;;;;;13.68;7.85;;;;;;;15.51;90.36;100910.50;5027853;28;20403;-82
2022/10/19 08:34:03;;;;;;;15.10;8.68;;;;;;;15.52;90.17;100911.34;5050569;28;20048;-83
2022/10/19 08:36:31;;;;;;;13.15;7.78;;;;;;;15.47;90.62;100908.22;5029983;28;20044;-83
2022/10/19 08:38:58;;;;;;;13.00;7.15;;;;;;;15.50;90.55;100910.66;5046320;28;20130;-82
2022/10/19 08:41:40;;;;;;;15.45;7.85;;;;;;;15.48;89.81;100902.75;5049513;28;20083;-82
2022/10/19 08:44:25;;;;;;;16.25;7.25;;;;;;;15.52;89.66;100897.94;5043001;28;20064;-82
2022/10/19 08:47:06;;;;;;;16.55;8.70;;;;;;;15.59;89.33;100899.06;5022035;28;20144;-81
2022/10/19 08:49:34;;;;;;;15.30;8.32;;;;;;;15.65;89.63;100906.56;4994269;28;20040;-82
2022/10/19 08:52:33;;;;;;;15.88;8.88;;;;;;;15.54;88.29;100902.16;5043283;28;20052;-81
2022/10/19 08:55:10;;;;;;;13.50;8.52;;;;;;;15.53;88.96;100900.50;5024440;28;21165;-82
2022/10/19 08:58:16;;;;;;;18.23;9.32;;;;;;;15.56;89.11;100904.72;5015312;28;20055;-81
2022/10/19 09:01:10;;;;;;;15.60;8.40;;;;;;;15.62;88.82;100905.00;5016706;28;20068;-82
2022/10/19 09:03:51;;;;;;;15.40;7.72;;;;;;;15.67;89.24;100912.59;5004961;28;20036;-81
2022/10/19 09:06:29;;;;;;;13.13;7.70;;;;;;;15.66;89.27;100902.88;5004701;28;20408;-82
2022/10/19 09:08:56;;;;;;;18.85;6.70;;;;;;;15.74;89.40;100892.31;4998665;28;20059;-82
2022/10/19 09:11:27;;;;;;;14.13;6.80;;;;;;;15.73;89.59;100892.50;5042985;28;20044;-82
2022/10/19 09:14:35;;;;;;;11.60;7.13;;;;;;;15.66;88.96;100897.53;5041502;28;20048;-81
2022/10/19 09:17:09;;;;;;;14.07;7.22;;;;;;;15.68;89.01;100898.22;5042241;28;20049;-82
2022/10/19 09:19:36;;;;;;;15.18;8.05;;;;;;;15.73;89.08;100892.50;5027744;28;20041;-82
2022/10/19 09:22:07;;;;;;;13.68;7.35;;;;;;;15.74;88.77;100886.97;5043820;28;20049;-81
2022/10/19 09:24:41;;;;;;;16.02;7.68;;;;;;;15.76;89.03;100884.16;5011764;28;20131;-82
2022/10/19 09:27:38;;;;;;;13.82;7.10;;;;;;;15.71;89.07;100891.78;5021249;28;20048;-81
2022/10/19 09:30:14;;;;;;;16.08;7.65;;;;;;;15.78;88.98;100884.88;4948688;28;20084;-81
2022/10/19 09:32:41;;;;;;;16.60;8.10;;;;;;;15.80;89.43;100889.09;5027762;28;20136;-81
2022/10/19 09:35:27;;;;;;;13.00;7.45;;;;;;;15.74;89.28;100894.16;5040099;28;20575;-84
2022/10/19 09:37:54;;;;;;;14.02;6.63;;;;;;;15.82;89.61;100897.84;5044565;28;20036;-82
2022/10/19 09:40:26;;;;;;;16.83;9.60;;;;;;;15.77;89.03;100896.56;5025876;28;20041;-81
2022/10/19 09:42:57;;;;;;;13.87;7.67;;;;;;;15.79;89.02;100891.91;5037563;28;20048;-81
2022/10/19 09:45:39;;;;;;;19.15;9.15;;;;;;;15.72;88.38;100891.66;5028463;28;20443;-81
2022/10/19 09:48:26;;;;;;;18.00;9.13;;;;;;;15.71;88.89;100889.09;5021826;28;20041;-82
2022/10/19 09:50:59;;;;;;;13.43;7.35;;;;;;;15.72;89.38;100893.47;4997475;28;20092;-83
2022/10/19 09:53:27;;;;;;;17.98;8.68;;;;;;;15.72;89.27;100891.66;5005933;28;20048;-81
2022/10/19 09:55:59;;;;;;;11.88;6.43;;;;;;;15.72;88.71;100891.66;5040929;28;20065;-81
2022/10/19 09:58:28;;;;;;;13.45;7.82;;;;;;;15.75;88.77;100894.03;5044143;28;20131;-81
2022/10/19 10:01:00;;;;;;;13.68;7.57;;;;;;;15.75;89.21;100891.34;5024403;28;20037;-81
2022/10/19 10:03:39;;;;;;;13.82;7.70;;;;;;;15.76;88.64;100890.34;5022485;28;20054;-81
2022/10/19 10:06:13;;;;;;;15.05;6.95;;;;;;;15.73;88.60;100885.28;5007447;28;20049;-81
2022/10/19 10:08:56;;;;;;;11.55;7.07;;;;;;;15.60;88.69;100887.41;5024374;28;20049;-80
2022/10/19 10:11:27;;;;;;;16.23;6.82;;;;;;;15.75;89.36;100882.47;5033609;28;20047;-81
2022/10/19 10:13:55;;;;;;;12.75;7.65;;;;;;;15.76;89.72;100881.47;5037738;28;20106;-81
2022/10/19 10:16:23;;;;;;;11.75;6.63;;;;;;;15.84;89.24;100881.59;5042526;28;20040;-80
2022/10/19 10:19:05;;;;;;;14.88;7.10;;;;;;;15.81;89.07;100871.19;5029603;28;20052;-81
2022/10/19 10:21:35;;;;;;;12.18;6.78;;;;;;;15.88;89.05;100874.97;5007109;28;20115;-81
2022/10/19 10:24:15;;;;;;;14.43;6.97;;;;;;;15.88;88.41;100871.47;5023644;28;20049;-81
2022/10/19 10:26:44;;;;;;;14.80;7.50;;;;;;;15.87;88.67;100869.75;5026787;28;20048;-82
2022/10/19 10:29:19;;;;;;;14.40;7.53;;;;;;;15.79;88.29;100870.47;5043093;28;20400;-81
2022/10/19 10:31:54;;;;;;;12.45;7.07;;;;;;;15.82;88.61;100871.06;5024321;28;20102;-81
2022/10/19 10:34:31;;;;;;;8.93;5.63;;;;;;;15.75;88.32;100871.78;5050079;28;20127;-82
2022/10/19 10:37:19;;;;;;;11.25;6.43;;;;;;;15.75;87.83;100879.81;5017115;28;20050;-81
2022/10/19 10:39:50;;;;;;;9.57;5.47;;;;;;;15.77;87.92;100867.09;5018913;28;20053;-81
2022/10/19 10:42:19;;;;;;;8.90;5.55;;;;;;;15.78;88.06;100876.84;5041144;28;20051;-81
2022/10/19 10:44:50;;;;;;;14.70;6.20;;;;;;;15.73;87.01;100876.41;5037297;28;20161;-81
2022/10/19 10:47:21;;;;;;;12.43;6.13;;;;;;;15.78;87.29;100872.31;5047174;28;20098;-82
2022/10/19 10:50:01;;;;;;;9.60;5.93;;;;;;;15.74;86.92;100862.03;5040101;28;20079;-82
2022/10/19 10:52:33;;;;;;;13.40;6.85;;;;;;;15.72;87.07;100866.69;5031364;28;20067;-82
2022/10/19 10:55:03;;;;;;;10.25;5.50;;;;;;;15.76;87.77;100866.25;5019344;28;20041;-81
2022/10/19 10:57:33;;;;;;;12.32;5.97;;;;;;;15.81;87.84;100868.50;5041261;28;20041;-81
2022/10/19 11:00:04;;;;;;;10.57;6.70;;;;;;;15.84;87.59;100866.38;5027147;28;20447;-83
2022/10/19 11:02:57;;;;;;;11.85;6.90;;;;;;;15.74;86.51;100865.53;5060056;28;20048;-83
2022/10/19 11:05:36;;;;;;;10.63;5.97;;;;;;;15.83;86.66;100862.00;4994368;28;20045;-82
2022/10/19 11:08:11;;;;;;;10.38;6.47;;;;;;;15.75;86.19;100853.88;5021556;28;20040;-83
2022/10/19 11:10:43;;;;;;;9.90;5.63;;;;;;;15.80;86.64;100848.09;5016958;28;20514;-81
2022/10/19 11:13:32;;;;;;;10.70;5.95;;;;;;;15.82;87.00;100848.75;5045748;28;20048;-82
2022/10/19 11:16:09;;;;;;;12.23;6.95;;;;;;;15.78;86.00;100858.94;5008494;28;20048;-81
2022/10/19 11:18:44;;;;;;;10.70;6.38;;;;;;;15.73;86.27;100855.84;5041854;28;20045;-82
2022/10/19 11:21:16;;;;;;;11.30;7.32;;;;;;;15.75;85.94;100840.47;5014845;28;20044;-81
2022/10/19 11:23:55;;;;;;;12.57;6.07;;;;;;;15.70;86.40;100840.06;5021632;28;20040;-82
2022/10/19 11:26:46;;;;;;;8.02;4.95;;;;;;;15.66;86.25;100827.91;5022200;28;20075;-82
2022/10/19 11:29:28;;;;;;;7.57;5.25;;;;;;;15.62;85.62;100832.72;5013242;28;20043;-82
2022/10/19 11:31:55;;;;;;;8.30;4.70;;;;;;;15.74;86.36;100832.56;5037303;28;20041;-83
2022/10/19 11:34:47;;;;;;;7.75;5.32;;;;;;;15.66;86.46;100819.03;5050139;28;20048;-84
2022/10/19 11:37:22;;;;;;;8.10;5.05;;;;;;;15.78;85.95;100813.41;4990998;28;20067;-83